Time;durP1;ratioP1;P1;durP2;ratioP2;P2;SDS_P1;SDS_P2;PMS_P1;PMS_P2;Temp;Humidity;BMP_temperature;BMP_pressure;BME280_temperature;BME280_humidity;BME280_pressure;Samples;Min_cycle;Max_cycle;Signal;HPM_P1;HPM_P2
2023/05/02 00:02:21;;;;;;;8.20;6.93;;;15.10;52.30;;;;;;5087706;28;20446;-69
2023/05/02 00:04:48;;;;;;;9.13;6.50;;;15.20;52.20;;;;;;5088075;28;20542;-69
2023/05/02 00:07:15;;;;;;;7.77;6.93;;;15.10;52.10;;;;;;5086645;28;20484;-68
2023/05/02 00:09:42;;;;;;;8.00;6.63;;;15.10;52.20;;;;;;5086494;28;20857;-69
2023/05/02 00:12:09;;;;;;;9.50;7.17;;;15.10;52.10;;;;;;5086576;28;20535;-69
2023/05/02 00:14:36;;;;;;;6.73;6.03;;;15.10;52.00;;;;;;5085904;28;20510;-69
2023/05/02 00:17:02;;;;;;;8.60;6.53;;;15.10;51.80;;;;;;5086017;28;20533;-69
2023/05/02 00:19:31;;;;;;;8.50;6.43;;;15.10;51.90;;;;;;5085001;28;20525;-68
2023/05/02 00:21:57;;;;;;;10.53;7.83;;;15.10;52.00;;;;;;5085984;28;20533;-69
2023/05/02 00:24:25;;;;;;;7.03;6.30;;;15.10;51.40;;;;;;5085841;28;20533;-68
2023/05/02 00:26:52;;;;;;;11.60;7.30;;;15.00;51.50;;;;;;5084723;28;20454;-68
2023/05/02 00:29:19;;;;;;;8.70;6.77;;;15.00;51.50;;;;;;5085018;28;20550;-68
2023/05/02 00:31:46;;;;;;;8.70;6.60;;;14.90;51.40;;;;;;5085079;28;20478;-67
2023/05/02 00:34:13;;;;;;;6.90;6.30;;;14.90;51.40;;;;;;5085953;28;20458;-67
2023/05/02 00:36:41;;;;;;;8.63;6.90;;;14.90;51.60;;;;;;5085831;28;20521;-68
2023/05/02 00:39:08;;;;;;;10.13;7.57;;;14.90;51.60;;;;;;5086959;28;20482;-68
2023/05/02 00:41:35;;;;;;;6.63;5.97;;;14.80;51.60;;;;;;5086262;28;20457;-69
2023/05/02 00:44:02;;;;;;;7.47;6.20;;;14.80;51.70;;;;;;5085630;28;20454;-68
2023/05/02 00:46:30;;;;;;;12.63;7.43;;;14.70;51.50;;;;;;5084905;28;20458;-68
2023/05/02 00:48:56;;;;;;;7.00;6.30;;;14.70;51.50;;;;;;5087662;28;20454;-68
2023/05/02 00:51:23;;;;;;;9.20;6.37;;;14.70;51.50;;;;;;5086072;28;20528;-68
2023/05/02 00:53:52;;;;;;;8.50;6.40;;;14.70;52.00;;;;;;5085365;28;20522;-68
2023/05/02 00:56:20;;;;;;;9.30;6.60;;;14.60;52.00;;;;;;5085616;28;20458;-68
2023/05/02 00:58:47;;;;;;;9.27;6.07;;;14.60;52.20;;;;;;5085236;28;20468;-69
2023/05/02 01:01:29;;;;;;;6.80;6.10;;;14.50;52.50;;;;;;5086895;28;20482;-69
2023/05/02 01:04:08;;;;;;;9.93;6.10;;;14.50;52.90;;;;;;5086432;28;20806;-69
2023/05/02 01:06:48;;;;;;;9.33;6.93;;;14.40;53.40;;;;;;5085245;28;20847;-69
2023/05/02 01:09:28;;;;;;;8.83;6.73;;;14.40;54.00;;;;;;5086076;28;20434;-69
2023/05/02 01:12:03;;;;;;;7.67;6.17;;;14.30;54.60;;;;;;5085906;28;20465;-68
2023/05/02 01:14:33;;;;;;;7.67;6.57;;;14.30;55.40;;;;;;5085769;28;20442;-68
2023/05/02 01:17:04;;;;;;;7.23;5.80;;;14.30;55.90;;;;;;5085483;28;21002;-69
2023/05/02 01:19:35;;;;;;;6.70;5.97;;;14.20;56.80;;;;;;5086121;28;20473;-68
2023/05/02 01:22:06;;;;;;;7.03;5.70;;;14.20;57.80;;;;;;5084762;28;20461;-68
2023/05/02 01:24:41;;;;;;;9.10;6.97;;;14.20;58.70;;;;;;5084731;28;20435;-68
2023/05/02 01:27:15;;;;;;;7.60;5.90;;;14.20;59.40;;;;;;5084351;28;20438;-68
2023/05/02 01:29:45;;;;;;;7.10;6.40;;;14.10;60.50;;;;;;5084764;28;20445;-69
2023/05/02 01:32:15;;;;;;;8.37;6.03;;;14.10;61.80;;;;;;5085199;28;20481;-69
2023/05/02 01:34:44;;;;;;;10.00;6.23;;;14.00;63.80;;;;;;5083956;28;20513;-69
2023/05/02 01:37:12;;;;;;;5.90;5.40;;;14.00;65.60;;;;;;5084396;28;20856;-68
2023/05/02 01:39:41;;;;;;;7.63;6.83;;;14.00;67.50;;;;;;5083644;28;21034;-68
2023/05/02 01:42:07;;;;;;;6.07;5.47;;;14.00;69.20;;;;;;5084342;28;20533;-68
2023/05/02 01:44:35;;;;;;;8.57;5.67;;;13.80;71.40;;;;;;5084537;28;20489;-68
2023/05/02 01:47:05;;;;;;;9.30;6.30;;;13.80;74.70;;;;;;5086422;28;20454;-68
2023/05/02 01:49:34;;;;;;;10.83;6.00;;;13.60;79.70;;;;;;5084930;28;20458;-68
2023/05/02 01:52:05;;;;;;;7.23;6.30;;;13.50;82.90;;;;;;5083383;28;20474;-69
2023/05/02 01:54:35;;;;;;;7.27;6.57;;;13.50;86.60;;;;;;5083329;28;20504;-68
2023/05/02 01:57:05;;;;;;;6.30;5.70;;;13.50;90.10;;;;;;5082709;28;20482;-68
2023/05/02 01:59:34;;;;;;;8.30;6.10;;;13.50;91.70;;;;;;5081347;28;20537;-69
2023/05/02 02:02:02;;;;;;;7.90;6.07;;;13.50;92.70;;;;;;5082096;28;20489;-68
2023/05/02 02:04:31;;;;;;;10.33;6.70;;;13.60;93.30;;;;;;5081198;28;20553;-68
2023/05/02 02:07:03;;;;;;;8.50;5.43;;;13.60;93.80;;;;;;5080658;28;20922;-69
2023/05/02 02:09:30;;;;;;;7.47;5.50;;;13.60;94.20;;;;;;5080882;28;20435;-69
2023/05/02 02:12:03;;;;;;;5.90;5.27;;;13.70;94.50;;;;;;5080726;28;20493;-69
2023/05/02 02:14:37;;;;;;;6.63;6.03;;;13.70;95.00;;;;;;5081111;28;20445;-69
2023/05/02 02:17:12;;;;;;;8.20;5.43;;;13.60;95.80;;;;;;5081509;28;20460;-69
2023/05/02 02:19:42;;;;;;;6.93;5.43;;;13.60;96.50;;;;;;5080808;28;20548;-68
2023/05/02 02:22:09;;;;;;;8.00;5.70;;;13.60;97.10;;;;;;5080668;28;20450;-69
2023/05/02 02:24:39;;;;;;;7.90;5.37;;;13.60;98.00;;;;;;5081170;28;20790;-68
2023/05/02 02:27:06;;;;;;;7.87;5.70;;;13.60;98.70;;;;;;5080373;28;20461;-69
2023/05/02 02:29:33;;;;;;;11.23;6.27;;;13.60;99.40;;;;;;5080655;28;20460;-68
2023/05/02 02:32:00;;;;;;;6.53;5.50;;;13.50;99.90;;;;;;5081333;28;20938;-69
2023/05/02 02:34:27;;;;;;;9.13;5.37;;;13.40;99.90;;;;;;5081085;28;20518;-68
2023/05/02 02:37:00;;;;;;;5.97;4.90;;;13.40;99.90;;;;;;5080117;28;20490;-69
2023/05/02 02:39:39;;;;;;;7.07;4.90;;;13.40;99.90;;;;;;5080427;28;20540;-69
2023/05/02 02:42:13;;;;;;;10.63;5.13;;;13.30;99.90;;;;;;5080114;28;20466;-69
2023/05/02 02:44:49;;;;;;;5.67;5.07;;;13.20;99.90;;;;;;5079560;28;20521;-69
2023/05/02 02:47:23;;;;;;;6.77;5.47;;;13.20;99.90;;;;;;5079693;28;20930;-68
2023/05/02 02:49:57;;;;;;;7.23;5.30;;;13.10;99.90;;;;;;5080280;28;20476;-68
2023/05/02 02:52:33;;;;;;;6.73;5.30;;;13.00;99.90;;;;;;5083519;28;20779;-67
2023/05/02 02:55:06;;;;;;;5.67;5.00;;;13.00;99.90;;;;;;5084232;28;20772;-69
2023/05/02 02:57:46;;;;;;;7.87;5.57;;;13.00;99.90;;;;;;5083512;28;20446;-68
2023/05/02 03:00:17;;;;;;;7.30;4.97;;;12.90;99.90;;;;;;5083415;28;20442;-69
2023/05/02 03:02:46;;;;;;;5.90;5.07;;;13.00;99.90;;;;;;5083922;28;20955;-68
2023/05/02 03:05:13;;;;;;;8.40;5.07;;;13.00;99.90;;;;;;5083543;28;20457;-68
2023/05/02 03:07:42;;;;;;;5.53;5.03;;;12.90;99.90;;;;;;5083671;28;20537;-69
2023/05/02 03:10:10;;;;;;;5.70;5.10;;;12.80;99.90;;;;;;5084243;28;20526;-69
2023/05/02 03:12:38;;;;;;;8.27;4.70;;;12.80;99.90;;;;;;5083415;28;20493;-69
2023/05/02 03:15:23;;;;;;;4.80;3.80;;;12.80;99.90;;;;;;5083700;28;20462;-69
2023/05/02 03:17:49;;;;;;;6.80;4.67;;;12.70;99.90;;;;;;5084363;28;20446;-69
2023/05/02 03:20:16;;;;;;;6.70;4.60;;;12.60;99.90;;;;;;5084755;28;20481;-68
2023/05/02 03:22:45;;;;;;;4.93;4.43;;;12.60;99.90;;;;;;5084801;28;20450;-69
2023/05/02 03:25:12;;;;;;;6.33;4.53;;;12.50;99.90;;;;;;5084560;28;20517;-70
2023/05/02 03:27:38;;;;;;;5.63;4.53;;;12.40;99.90;;;;;;5084955;28;20869;-69
2023/05/02 03:30:07;;;;;;;4.67;4.20;;;12.40;99.90;;;;;;5084608;28;20446;-69
2023/05/02 03:32:33;;;;;;;9.20;4.93;;;12.40;99.90;;;;;;5083862;28;20561;-68
2023/05/02 03:35:00;;;;;;;8.13;3.83;;;12.40;99.90;;;;;;5085419;28;20549;-67
2023/05/02 03:37:27;;;;;;;6.90;4.70;;;12.30;99.90;;;;;;5085755;28;20546;-69
2023/05/02 03:39:55;;;;;;;4.67;4.27;;;12.20;99.90;;;;;;5087562;28;20505;-70
2023/05/02 03:42:22;;;;;;;9.33;4.43;;;12.10;99.90;;;;;;5089834;28;20522;-69
2023/05/02 03:44:52;;;;;;;5.67;3.97;;;12.00;99.90;;;;;;5087509;28;20830;-67
2023/05/02 03:47:19;;;;;;;5.17;4.27;;;12.00;99.90;;;;;;5087111;28;20449;-68
2023/05/02 03:49:46;;;;;;;6.30;4.23;;;11.90;99.90;;;;;;5087114;28;20458;-68
2023/05/02 03:52:13;;;;;;;6.00;3.83;;;11.90;99.90;;;;;;5087923;28;20478;-68
2023/05/02 03:54:42;;;;;;;4.60;4.00;;;11.90;99.90;;;;;;5086486;28;20454;-68
2023/05/02 03:57:11;;;;;;;8.17;4.23;;;12.00;99.90;;;;;;5086799;28;20454;-68
2023/05/02 03:59:40;;;;;;;6.00;4.77;;;11.90;99.90;;;;;;5086164;28;20458;-68
2023/05/02 04:02:07;;;;;;;6.90;4.70;;;11.90;99.90;;;;;;5085336;28;20474;-69
2023/05/02 04:04:35;;;;;;;6.63;4.43;;;11.90;99.90;;;;;;5086766;28;20810;-68
2023/05/02 04:07:01;;;;;;;8.20;4.50;;;11.90;99.90;;;;;;5088129;28;20485;-69
2023/05/02 04:09:28;;;;;;;6.50;4.50;;;11.90;99.90;;;;;;5088776;28;20462;-68
2023/05/02 04:11:55;;;;;;;7.90;5.30;;;11.80;99.90;;;;;;5086405;28;20489;-68
2023/05/02 04:14:23;;;;;;;5.20;4.70;;;11.80;99.90;;;;;;5086659;28;20530;-68
2023/05/02 04:16:51;;;;;;;6.30;5.07;;;11.80;99.90;;;;;;5085475;28;20458;-68
2023/05/02 04:19:19;;;;;;;7.27;5.23;;;11.80;99.90;;;;;;5088531;28;20534;-67
2023/05/02 04:21:46;;;;;;;6.53;5.27;;;11.80;99.90;;;;;;5089770;28;20485;-69
2023/05/02 04:24:13;;;;;;;5.90;5.00;;;11.80;99.90;;;;;;5089148;28;20518;-68
2023/05/02 04:26:40;;;;;;;8.10;4.93;;;11.70;99.90;;;;;;5089123;28;20544;-68
2023/05/02 04:29:07;;;;;;;5.50;4.40;;;11.70;99.90;;;;;;5090129;28;20549;-68
2023/05/02 04:31:36;;;;;;;8.03;4.73;;;11.70;99.90;;;;;;5087861;28;20973;-69
2023/05/02 04:34:03;;;;;;;5.77;4.70;;;11.70;99.90;;;;;;5091350;28;20458;-69
2023/05/02 04:36:30;;;;;;;6.73;4.33;;;11.70;99.90;;;;;;5090331;28;20469;-68
2023/05/02 04:38:57;;;;;;;5.03;4.50;;;11.60;99.90;;;;;;5091583;28;20488;-68
2023/05/02 04:41:24;;;;;;;6.33;4.50;;;11.60;99.90;;;;;;5090443;28;20505;-72
2023/05/02 04:43:51;;;;;;;6.40;4.40;;;11.70;99.90;;;;;;5089891;28;20464;-68
2023/05/02 04:46:18;;;;;;;6.37;4.07;;;11.80;99.90;;;;;;5089801;28;20537;-68
2023/05/02 04:48:46;;;;;;;8.90;4.80;;;11.80;99.90;;;;;;5089155;28;20522;-68
2023/05/02 04:51:13;;;;;;;5.20;4.60;;;11.90;99.90;;;;;;5088585;28;20523;-69
2023/05/02 04:53:40;;;;;;;5.57;3.70;;;11.90;99.90;;;;;;5088880;28;20482;-69
2023/05/02 04:56:08;;;;;;;8.40;5.10;;;11.90;99.90;;;;;;5089289;28;20457;-68
2023/05/02 04:58:35;;;;;;;4.80;4.30;;;11.90;99.90;;;;;;5090463;28;20836;-68
2023/05/02 05:01:01;;;;;;;5.00;4.20;;;11.90;99.90;;;;;;5090883;28;20450;-68
2023/05/02 05:03:29;;;;;;;8.43;4.27;;;11.90;99.90;;;;;;5089958;28;20478;-69
2023/05/02 05:05:57;;;;;;;9.93;4.40;;;11.90;99.90;;;;;;5089946;28;20474;-69
2023/05/02 05:08:24;;;;;;;4.90;3.70;;;12.00;99.90;;;;;;5088449;28;20526;-68
2023/05/02 05:10:51;;;;;;;10.83;5.00;;;12.00;99.90;;;;;;5086963;28;20458;-68
2023/05/02 05:13:18;;;;;;;7.07;4.43;;;12.10;99.90;;;;;;5086772;28;20545;-68
2023/05/02 05:15:45;;;;;;;5.23;4.30;;;12.10;99.90;;;;;;5087237;28;20454;-68
2023/05/02 05:18:12;;;;;;;5.20;4.17;;;12.10;99.90;;;;;;5087140;28;20460;-67
2023/05/02 05:20:39;;;;;;;7.13;4.50;;;12.10;99.90;;;;;;5088865;28;20868;-68
2023/05/02 05:23:07;;;;;;;8.30;5.07;;;12.10;99.90;;;;;;5089426;28;20454;-68
2023/05/02 05:25:34;;;;;;;5.87;4.30;;;12.00;99.90;;;;;;5089530;28;20469;-68
2023/05/02 05:28:01;;;;;;;5.30;4.73;;;11.90;99.90;;;;;;5089923;28;20447;-68
2023/05/02 05:30:29;;;;;;;5.83;4.10;;;11.90;99.90;;;;;;5090652;28;20482;-69
2023/05/02 05:32:57;;;;;;;6.93;5.00;;;11.90;99.90;;;;;;5091088;28;20478;-69
2023/05/02 05:35:24;;;;;;;6.13;4.07;;;11.90;99.90;;;;;;5090230;28;20455;-69
2023/05/02 05:37:51;;;;;;;5.30;4.80;;;12.00;99.90;;;;;;5090302;28;20511;-69
2023/05/02 05:40:20;;;;;;;6.07;4.80;;;11.90;99.90;;;;;;5090416;28;20764;-69
2023/05/02 05:42:47;;;;;;;8.30;4.20;;;11.90;99.90;;;;;;5089568;28;20450;-69
2023/05/02 05:45:15;;;;;;;4.93;4.13;;;11.90;99.90;;;;;;5089593;28;20490;-69
2023/05/02 05:47:42;;;;;;;6.03;4.20;;;11.90;99.90;;;;;;5089562;28;20775;-69
2023/05/02 05:50:10;;;;;;;7.57;5.10;;;11.90;99.90;;;;;;5089741;28;20497;-69
2023/05/02 05:52:37;;;;;;;7.77;5.73;;;11.90;99.90;;;;;;5088378;28;20559;-69
2023/05/02 05:55:05;;;;;;;7.97;5.50;;;11.90;99.90;;;;;;5090036;28;20514;-69
2023/05/02 05:57:33;;;;;;;8.27;5.20;;;11.90;99.90;;;;;;5089318;28;20454;-69
2023/05/02 06:00:00;;;;;;;8.63;5.77;;;11.90;99.90;;;;;;5088985;28;20845;-69
2023/05/02 06:02:27;;;;;;;8.07;5.23;;;11.90;99.90;;;;;;5086833;28;20542;-70
2023/05/02 06:04:54;;;;;;;8.90;5.33;;;12.00;99.90;;;;;;5088744;28;20458;-68
2023/05/02 06:07:21;;;;;;;9.53;5.97;;;12.10;99.90;;;;;;5089710;28;20511;-68
2023/05/02 06:09:48;;;;;;;10.97;6.27;;;12.10;99.90;;;;;;5090752;28;20496;-69
2023/05/02 06:12:15;;;;;;;7.87;5.50;;;12.20;99.90;;;;;;5090124;28;20546;-68
2023/05/02 06:14:43;;;;;;;7.33;5.10;;;12.10;99.90;;;;;;5089801;28;20550;-69
2023/05/02 06:17:10;;;;;;;9.50;5.90;;;12.10;99.90;;;;;;5089445;28;20482;-68
2023/05/02 06:19:37;;;;;;;6.97;5.97;;;12.20;99.90;;;;;;5089599;28;20518;-69
2023/05/02 06:22:04;;;;;;;8.30;6.07;;;12.20;99.90;;;;;;5089323;28;20454;-69
2023/05/02 06:24:31;;;;;;;9.77;5.67;;;12.30;99.90;;;;;;5088425;28;20481;-69
2023/05/02 06:26:59;;;;;;;12.00;7.97;;;12.40;99.90;;;;;;5088273;28;20453;-68
2023/05/02 06:29:26;;;;;;;10.67;6.80;;;12.50;99.90;;;;;;5088029;28;20462;-68
2023/05/02 06:31:56;;;;;;;12.67;7.87;;;12.50;99.90;;;;;;5088154;28;20513;-69
2023/05/02 06:34:23;;;;;;;35.13;9.23;;;12.60;99.90;;;;;;5089320;28;20461;-68
2023/05/02 06:36:55;;;;;;;14.77;8.60;;;12.60;99.90;;;;;;5087881;28;20824;-69
2023/05/02 06:39:22;;;;;;;11.80;8.80;;;12.60;99.90;;;;;;5089005;28;20478;-68
2023/05/02 06:41:48;;;;;;;12.43;8.67;;;12.60;99.90;;;;;;5087523;28;20464;-68
2023/05/02 06:44:15;;;;;;;12.27;7.90;;;12.60;99.90;;;;;;5087701;28;20485;-68
2023/05/02 06:46:42;;;;;;;11.90;8.93;;;12.60;99.90;;;;;;5086286;28;20522;-69
2023/05/02 06:49:10;;;;;;;12.63;8.70;;;12.70;99.90;;;;;;5086870;28;20526;-70
2023/05/02 06:51:37;;;;;;;12.83;8.97;;;12.60;99.90;;;;;;5087627;28;20489;-71
2023/05/02 06:54:04;;;;;;;9.27;7.60;;;12.60;99.90;;;;;;5087371;28;20517;-69
2023/05/02 06:56:31;;;;;;;12.70;8.23;;;12.60;99.90;;;;;;5086190;28;20516;-69
2023/05/02 06:58:58;;;;;;;10.80;7.47;;;12.60;99.90;;;;;;5085000;28;20522;-69
2023/05/02 07:01:25;;;;;;;13.93;8.77;;;12.60;99.90;;;;;;5085857;28;20841;-68
2023/05/02 07:03:52;;;;;;;13.00;8.77;;;12.60;99.90;;;;;;5085537;28;20517;-69
2023/05/02 07:06:20;;;;;;;8.43;7.13;;;12.70;99.90;;;;;;5084143;28;20945;-67
2023/05/02 07:08:47;;;;;;;10.83;7.27;;;12.70;99.90;;;;;;5074246;28;20545;-67
2023/05/02 07:11:14;;;;;;;12.07;7.93;;;12.80;99.90;;;;;;5074624;28;20454;-67
2023/05/02 07:13:41;;;;;;;10.77;7.43;;;12.90;99.90;;;;;;5074455;28;20504;-68
2023/05/02 07:16:08;;;;;;;10.83;6.90;;;13.00;99.90;;;;;;5074703;28;20844;-67
2023/05/02 07:18:35;;;;;;;9.90;8.03;;;13.10;99.90;;;;;;5074365;28;20513;-67
2023/05/02 07:21:02;;;;;;;8.00;7.00;;;13.20;99.90;;;;;;5074623;28;20454;-67
2023/05/02 07:23:30;;;;;;;14.60;7.10;;;13.10;99.90;;;;;;5074263;28;20461;-69
2023/05/02 07:25:57;;;;;;;9.50;7.00;;;13.10;99.90;;;;;;5074697;28;20462;-66
2023/05/02 07:28:24;;;;;;;7.83;6.80;;;13.20;99.90;;;;;;5074446;28;20548;-67
2023/05/02 07:30:51;;;;;;;12.73;7.20;;;13.20;99.90;;;;;;5074914;28;20450;-68
2023/05/02 07:33:18;;;;;;;9.27;6.07;;;13.30;99.90;;;;;;5074804;28;20490;-67
2023/05/02 07:35:45;;;;;;;8.97;5.53;;;13.40;99.90;;;;;;5075167;28;20553;-69
2023/05/02 07:38:12;;;;;;;13.10;7.07;;;13.60;99.90;;;;;;5078092;28;20856;-68
2023/05/02 07:40:40;;;;;;;6.93;6.20;;;13.80;99.90;;;;;;5078336;28;20786;-68
2023/05/02 07:43:07;;;;;;;8.93;6.60;;;13.80;99.90;;;;;;5078014;28;20454;-66
2023/05/02 07:45:35;;;;;;;8.00;7.17;;;14.00;99.90;;;;;;5078202;28;20537;-66
2023/05/02 07:48:02;;;;;;;8.00;6.40;;;14.10;99.90;;;;;;5077825;28;20458;-66
2023/05/02 07:50:29;;;;;;;10.43;6.53;;;14.20;99.90;;;;;;5078068;28;20515;-68
2023/05/02 07:52:56;;;;;;;8.00;6.10;;;14.30;99.90;;;;;;5077964;28;20478;-67
2023/05/02 07:55:25;;;;;;;8.00;6.10;;;14.40;99.90;;;;;;5078040;28;20922;-67
2023/05/02 07:57:53;;;;;;;5.90;5.30;;;14.40;99.90;;;;;;5077522;28;20470;-67
2023/05/02 08:00:20;;;;;;;9.90;5.43;;;14.30;99.90;;;;;;5077654;28;20518;-67
2023/05/02 08:02:47;;;;;;;6.67;5.30;;;14.30;99.90;;;;;;5077704;28;20855;-68
2023/05/02 08:05:14;;;;;;;7.97;5.93;;;14.10;99.90;;;;;;5078728;28;20454;-67
2023/05/02 08:07:41;;;;;;;7.60;5.47;;;14.00;99.90;;;;;;5078502;28;20516;-67
2023/05/02 08:10:09;;;;;;;5.57;5.03;;;14.10;99.90;;;;;;5078680;28;20453;-65
2023/05/02 08:12:39;;;;;;;8.50;5.80;;;14.20;99.90;;;;;;5078409;28;20523;-67
2023/05/02 08:15:08;;;;;;;6.57;4.90;;;14.30;99.90;;;;;;5079017;28;20465;-67
2023/05/02 08:17:35;;;;;;;5.53;4.53;;;14.40;99.90;;;;;;5078316;28;20519;-67
2023/05/02 08:20:02;;;;;;;4.47;3.10;;;14.40;99.90;;;;;;5078693;28;20454;-67
2023/05/02 08:22:29;;;;;;;4.93;3.03;;;14.40;99.90;;;;;;5077735;28;20454;-67
2023/05/02 08:24:56;;;;;;;4.60;4.13;;;14.50;99.90;;;;;;5077763;28;20458;-67
2023/05/02 08:27:23;;;;;;;3.63;3.23;;;14.70;99.90;;;;;;5077899;28;20533;-67
2023/05/02 08:29:50;;;;;;;5.63;4.83;;;14.70;99.90;;;;;;5078044;28;20530;-67
2023/05/02 08:32:18;;;;;;;6.43;4.40;;;14.60;99.90;;;;;;5077835;28;20545;-67
2023/05/02 08:34:45;;;;;;;6.70;5.07;;;14.30;99.90;;;;;;5077568;28;20550;-66
2023/05/02 08:37:12;;;;;;;5.93;5.20;;;13.90;99.90;;;;;;5077754;28;20477;-67
2023/05/02 08:39:39;;;;;;;7.33;5.43;;;13.80;99.90;;;;;;5077954;28;20485;-66
2023/05/02 08:42:07;;;;;;;8.77;5.47;;;13.60;99.90;;;;;;5078350;28;20830;-66
2023/05/02 08:44:34;;;;;;;6.43;5.70;;;13.60;99.90;;;;;;5078753;28;20459;-66
2023/05/02 08:47:02;;;;;;;6.00;4.73;;;13.60;99.90;;;;;;5079761;28;20914;-66
2023/05/02 08:49:32;;;;;;;6.87;5.57;;;13.60;99.90;;;;;;5078800;28;20557;-66
2023/05/02 08:52:00;;;;;;;5.63;4.77;;;13.70;99.90;;;;;;5078393;28;20914;-67
2023/05/02 08:54:28;;;;;;;7.30;4.50;;;13.80;99.90;;;;;;5079370;28;20578;-66
2023/05/02 08:56:58;;;;;;;4.90;4.30;;;13.80;99.90;;;;;;5079640;28;20531;-67
2023/05/02 08:59:25;;;;;;;7.17;4.90;;;13.90;99.90;;;;;;5079578;28;20501;-66
2023/05/02 09:01:56;;;;;;;4.33;3.87;;;13.90;99.90;;;;;;5079672;28;20541;-67
2023/05/02 09:04:28;;;;;;;6.00;4.43;;;13.90;99.90;;;;;;5079589;28;20516;-65
2023/05/02 09:06:56;;;;;;;5.77;4.30;;;13.90;99.90;;;;;;5080367;28;20450;-67
2023/05/02 09:09:23;;;;;;;6.93;4.90;;;14.00;99.90;;;;;;5079294;28;20545;-66
2023/05/02 09:11:51;;;;;;;5.93;4.47;;;14.10;99.90;;;;;;5082280;28;20465;-66
2023/05/02 09:14:18;;;;;;;5.53;4.23;;;14.10;99.90;;;;;;5080788;28;20557;-66
2023/05/02 09:16:45;;;;;;;5.10;4.53;;;14.10;99.90;;;;;;5082016;28;20541;-66
2023/05/02 09:19:24;;;;;;;5.57;4.10;;;14.20;99.90;;;;;;5079049;28;20830;-67
2023/05/02 09:21:52;;;;;;;4.90;4.17;;;14.30;99.90;;;;;;5077477;28;20442;-67
2023/05/02 09:24:21;;;;;;;6.50;4.77;;;14.40;99.90;;;;;;5077591;28;20546;-66
2023/05/02 09:26:58;;;;;;;4.60;4.00;;;14.50;99.90;;;;;;5077683;28;20541;-66
2023/05/02 09:29:26;;;;;;;5.33;4.13;;;14.40;99.90;;;;;;5078354;28;20465;-66
2023/05/02 09:31:53;;;;;;;5.80;4.90;;;14.40;99.90;;;;;;5078629;28;20512;-66
2023/05/02 09:34:20;;;;;;;6.20;5.10;;;14.50;99.90;;;;;;5077146;28;20478;-66
2023/05/02 09:36:50;;;;;;;6.00;4.60;;;14.40;99.90;;;;;;5077184;28;20646;-66
2023/05/02 09:39:18;;;;;;;7.60;5.07;;;14.30;99.90;;;;;;5076075;28;20490;-66
2023/05/02 09:41:48;;;;;;;6.70;4.47;;;14.20;99.90;;;;;;5081090;28;20459;-65
2023/05/02 09:44:17;;;;;;;5.53;4.87;;;13.90;99.90;;;;;;5096136;28;20488;-67
2023/05/02 09:46:47;;;;;;;6.80;5.20;;;13.90;99.90;;;;;;5099207;28;20499;-66
2023/05/02 09:49:17;;;;;;;6.33;5.00;;;14.00;99.90;;;;;;5098255;28;20453;-66
2023/05/02 09:51:45;;;;;;;4.83;4.27;;;14.00;99.90;;;;;;5099666;28;20447;-66
2023/05/02 09:54:12;;;;;;;3.90;3.50;;;14.10;99.90;;;;;;5099003;28;20544;-66
2023/05/02 09:56:56;;;;;;;5.00;3.37;;;14.20;99.90;;;;;;5098972;28;20458;-64
2023/05/02 09:59:24;;;;;;;4.87;4.03;;;14.00;99.90;;;;;;5098447;28;20536;-65
2023/05/02 10:01:58;;;;;;;4.47;3.60;;;14.20;99.90;;;;;;5098499;28;20527;-65
2023/05/02 10:04:26;;;;;;;13.20;3.40;;;14.30;99.90;;;;;;5098566;28;20508;-65
2023/05/02 10:06:54;;;;;;;4.50;3.33;;;14.50;99.90;;;;;;5097671;28;20856;-66
2023/05/02 10:09:22;;;;;;;3.23;2.93;;;14.60;99.90;;;;;;5097437;28;20457;-66
2023/05/02 10:11:52;;;;;;;3.33;2.67;;;14.60;99.90;;;;;;5098480;28;20769;-67
2023/05/02 10:14:22;;;;;;;3.53;3.07;;;14.30;99.90;;;;;;5097313;28;20472;-66
2023/05/02 10:16:57;;;;;;;3.70;3.07;;;14.10;99.90;;;;;;5097162;28;20494;-67
2023/05/02 10:19:30;;;;;;;3.30;2.93;;;14.10;99.90;;;;;;5097197;28;20442;-66
2023/05/02 10:21:58;;;;;;;4.37;3.27;;;14.20;99.90;;;;;;5097219;28;20467;-66
2023/05/02 10:24:26;;;;;;;4.77;3.40;;;14.20;99.90;;;;;;5098001;28;20540;-67
2023/05/02 10:26:54;;;;;;;5.43;3.50;;;14.00;99.90;;;;;;5097518;28;20452;-66
2023/05/02 10:29:23;;;;;;;3.80;3.40;;;13.90;99.90;;;;;;5097287;28;20489;-67
2023/05/02 10:31:50;;;;;;;9.33;3.43;;;14.10;99.90;;;;;;5097293;28;20544;-66
2023/05/02 10:34:19;;;;;;;4.67;3.43;;;14.10;99.90;;;;;;5096924;28;20477;-65
2023/05/02 10:36:46;;;;;;;3.17;2.80;;;14.00;99.90;;;;;;5097038;28;20541;-66
2023/05/02 10:39:13;;;;;;;3.97;3.03;;;13.90;99.90;;;;;;5096311;28;20543;-66
2023/05/02 10:41:41;;;;;;;3.30;2.77;;;13.80;99.90;;;;;;5096521;28;20948;-66
2023/05/02 10:44:08;;;;;;;6.03;3.40;;;13.70;99.90;;;;;;5095695;28;20453;-66
2023/05/02 10:46:39;;;;;;;3.93;3.50;;;13.70;99.90;;;;;;5094980;28;20539;-66
2023/05/02 10:49:07;;;;;;;6.50;3.60;;;13.60;99.90;;;;;;5094933;28;20434;-66
2023/05/02 10:51:35;;;;;;;8.20;3.73;;;13.60;99.90;;;;;;5095147;28;20452;-66
2023/05/02 10:54:22;;;;;;;4.80;3.73;;;13.50;99.90;;;;;;5094941;28;20817;-66
2023/05/02 10:57:06;;;;;;;6.37;4.37;;;13.40;99.90;;;;;;5095398;28;20471;-67
2023/05/02 10:59:35;;;;;;;7.97;4.57;;;13.10;99.90;;;;;;5094861;28;20454;-66
2023/05/02 11:02:03;;;;;;;6.20;4.50;;;12.90;99.90;;;;;;5095418;28;20459;-66
2023/05/02 11:04:58;;;;;;;9.33;5.30;;;12.70;99.90;;;;;;5096419;28;20464;-67
2023/05/02 11:07:25;;;;;;;9.27;5.13;;;12.50;99.90;;;;;;5095558;28;20765;-66
2023/05/02 11:09:52;;;;;;;9.00;6.17;;;12.40;99.90;;;;;;5095286;28;20453;-66
2023/05/02 11:12:44;;;;;;;9.10;5.80;;;12.40;99.90;;;;;;5097292;28;20453;-66
2023/05/02 11:15:11;;;;;;;13.37;6.13;;;12.30;99.90;;;;;;5098441;28;20472;-67
2023/05/02 11:18:00;;;;;;;14.53;6.47;;;12.30;99.90;;;;;;5098852;28;20543;-66
2023/05/02 11:20:28;;;;;;;10.67;6.23;;;12.20;99.90;;;;;;5100065;28;20448;-66
2023/05/02 11:22:57;;;;;;;14.23;6.10;;;11.90;99.90;;;;;;5100247;28;20463;-66
2023/05/02 11:25:32;;;;;;;10.07;5.87;;;11.90;99.90;;;;;;5099648;28;20989;-66
2023/05/02 11:27:59;;;;;;;12.20;5.60;;;12.10;99.90;;;;;;5099122;28;20463;-67
2023/05/02 11:30:47;;;;;;;13.20;5.77;;;12.20;99.90;;;;;;5098577;28;20555;-66
2023/05/02 11:33:18;;;;;;;12.23;5.37;;;12.30;99.90;;;;;;5100783;28;20441;-67
2023/05/02 11:35:49;;;;;;;14.07;5.37;;;12.40;99.90;;;;;;5100792;28;20909;-66
2023/05/02 11:38:21;;;;;;;11.43;4.80;;;12.40;99.90;;;;;;5100479;28;20803;-66
2023/05/02 11:40:58;;;;;;;9.70;4.77;;;12.40;99.90;;;;;;5100591;28;20457;-66
2023/05/02 11:43:26;;;;;;;9.37;4.93;;;12.40;99.90;;;;;;5100581;28;20445;-65
2023/05/02 11:45:54;;;;;;;8.67;4.27;;;12.40;99.90;;;;;;5100641;28;20453;-67
2023/05/02 11:48:26;;;;;;;8.10;3.87;;;12.50;99.90;;;;;;5099844;28;20453;-66
2023/05/02 11:50:55;;;;;;;5.90;3.67;;;12.50;99.90;;;;;;5100413;28;20442;-66
2023/05/02 11:53:24;;;;;;;4.53;3.13;;;12.30;99.90;;;;;;5099992;28;20453;-65
2023/05/02 11:55:52;;;;;;;6.43;3.33;;;12.40;99.90;;;;;;5099828;28;20828;-66
2023/05/02 11:58:20;;;;;;;6.83;3.93;;;12.40;99.90;;;;;;5099468;28;20453;-65
2023/05/02 12:00:48;;;;;;;7.53;4.10;;;12.50;99.90;;;;;;5099792;28;20910;-65
2023/05/02 12:03:30;;;;;;;5.70;3.70;;;12.30;99.90;;;;;;5100068;28;20457;-64
2023/05/02 12:05:58;;;;;;;7.50;3.50;;;12.30;99.90;;;;;;5099367;28;20441;-66
2023/05/02 12:08:28;;;;;;;7.60;3.50;;;12.50;99.90;;;;;;5099127;28;20457;-66
2023/05/02 12:10:56;;;;;;;4.00;2.90;;;12.50;99.90;;;;;;5099321;28;20452;-66
2023/05/02 12:13:25;;;;;;;5.33;3.10;;;12.40;99.90;;;;;;5098541;28;20453;-65
2023/05/02 12:15:53;;;;;;;5.10;3.27;;;12.50;99.90;;;;;;5098907;28;20457;-66
2023/05/02 12:18:23;;;;;;;3.70;3.07;;;12.50;99.90;;;;;;5098202;28;20914;-66
2023/05/02 12:20:52;;;;;;;6.93;2.90;;;12.50;99.90;;;;;;5098939;28;20510;-66
2023/05/02 12:23:20;;;;;;;8.17;4.87;;;12.60;99.90;;;;;;5098437;28;20536;-66
2023/05/02 12:25:48;;;;;;;5.27;3.33;;;12.80;99.90;;;;;;5099820;28;20459;-66
2023/05/02 12:28:16;;;;;;;6.83;3.70;;;12.90;99.90;;;;;;5099313;28;20463;-65
2023/05/02 12:30:47;;;;;;;10.10;4.30;;;13.00;99.90;;;;;;5098980;28;20548;-67
2023/05/02 12:33:15;;;;;;;7.57;3.20;;;13.00;99.90;;;;;;5099581;28;20438;-66
2023/05/02 12:35:42;;;;;;;5.77;3.07;;;12.90;99.90;;;;;;5098814;28;20488;-66
2023/05/02 12:38:13;;;;;;;8.37;3.10;;;12.90;99.90;;;;;;5098746;28;20477;-66
2023/05/02 12:40:47;;;;;;;9.17;3.80;;;13.10;99.90;;;;;;5099114;28;20438;-66
2023/05/02 12:43:14;;;;;;;9.73;3.13;;;13.10;99.90;;;;;;5098886;28;20513;-66
2023/05/02 12:45:42;;;;;;;8.73;3.90;;;13.30;99.90;;;;;;5099645;28;20834;-66
2023/05/02 12:48:24;;;;;;;8.30;4.27;;;13.40;99.90;;;;;;5099480;28;20962;-66
2023/05/02 12:50:51;;;;;;;12.37;3.60;;;13.00;99.90;;;;;;5098837;28;20514;-66
2023/05/02 12:53:38;;;;;;;7.10;4.10;;;13.10;99.90;;;;;;5098692;28;20461;-65
2023/05/02 12:56:06;;;;;;;8.47;4.10;;;12.80;99.90;;;;;;5099193;28;20769;-65